sensor_id;sensor_type;location;lat;lon;timestamp;temperature;humidity
66213;SHT31;53015;50.046;8.238;2023-12-20T00:01:25;5.85;97.42
66213;SHT31;53015;50.046;8.238;2023-12-20T00:03:50;5.93;97.35
66213;SHT31;53015;50.046;8.238;2023-12-20T00:06:16;5.91;97.30
66213;SHT31;53015;50.046;8.238;2023-12-20T00:08:43;5.89;97.37
66213;SHT31;53015;50.046;8.238;2023-12-20T00:11:08;5.81;97.42
66213;SHT31;53015;50.046;8.238;2023-12-20T00:13:33;5.80;97.43
66213;SHT31;53015;50.046;8.238;2023-12-20T00:15:59;5.76;97.54
66213;SHT31;53015;50.046;8.238;2023-12-20T00:18:25;5.80;97.63
66213;SHT31;53015;50.046;8.238;2023-12-20T00:20:50;5.79;97.68
66213;SHT31;53015;50.046;8.238;2023-12-20T00:23:15;5.85;97.65
66213;SHT31;53015;50.046;8.238;2023-12-20T00:25:42;5.83;97.82
66213;SHT31;53015;50.046;8.238;2023-12-20T00:28:08;5.86;97.72
66213;SHT31;53015;50.046;8.238;2023-12-20T00:30:34;5.80;97.66
66213;SHT31;53015;50.046;8.238;2023-12-20T00:32:59;5.87;97.83
66213;SHT31;53015;50.046;8.238;2023-12-20T00:35:24;5.86;97.71
66213;SHT31;53015;50.046;8.238;2023-12-20T00:37:50;5.85;97.68
66213;SHT31;53015;50.046;8.238;2023-12-20T00:40:15;5.79;97.48
66213;SHT31;53015;50.046;8.238;2023-12-20T00:42:42;5.77;97.82
66213;SHT31;53015;50.046;8.238;2023-12-20T00:45:08;5.81;98.05
66213;SHT31;53015;50.046;8.238;2023-12-20T00:47:34;5.83;97.68
66213;SHT31;53015;50.046;8.238;2023-12-20T00:50:00;5.86;97.76
66213;SHT31;53015;50.046;8.238;2023-12-20T00:52:25;5.80;97.92
66213;SHT31;53015;50.046;8.238;2023-12-20T00:54:51;5.86;98.35
66213;SHT31;53015;50.046;8.238;2023-12-20T00:57:16;5.85;97.81
66213;SHT31;53015;50.046;8.238;2023-12-20T00:59:43;5.91;97.66
66213;SHT31;53015;50.046;8.238;2023-12-20T01:02:09;5.85;97.92
66213;SHT31;53015;50.046;8.238;2023-12-20T01:04:34;6.01;97.79
66213;SHT31;53015;50.046;8.238;2023-12-20T01:07:00;6.04;97.73
66213;SHT31;53015;50.046;8.238;2023-12-20T01:09:25;5.97;97.19
66213;SHT31;53015;50.046;8.238;2023-12-20T01:11:51;5.98;97.76
66213;SHT31;53015;50.046;8.238;2023-12-20T01:14:16;6.01;97.73
66213;SHT31;53015;50.046;8.238;2023-12-20T01:16:43;6.11;97.59
66213;SHT31;53015;50.046;8.238;2023-12-20T01:19:09;6.11;97.32
66213;SHT31;53015;50.046;8.238;2023-12-20T01:21:34;6.10;97.14
66213;SHT31;53015;50.046;8.238;2023-12-20T01:23:59;5.98;96.99
66213;SHT31;53015;50.046;8.238;2023-12-20T01:26:25;6.11;97.08
66213;SHT31;53015;50.046;8.238;2023-12-20T01:28:50;6.05;96.91
66213;SHT31;53015;50.046;8.238;2023-12-20T01:31:16;6.10;96.63
66213;SHT31;53015;50.046;8.238;2023-12-20T01:33:43;6.11;96.70
66213;SHT31;53015;50.046;8.238;2023-12-20T01:36:08;6.07;96.81
66213;SHT31;53015;50.046;8.238;2023-12-20T01:38:34;6.03;97.10
66213;SHT31;53015;50.046;8.238;2023-12-20T01:40:59;6.10;96.81
66213;SHT31;53015;50.046;8.238;2023-12-20T01:43:25;6.14;96.73
66213;SHT31;53015;50.046;8.238;2023-12-20T01:45:50;6.11;96.54
66213;SHT31;53015;50.046;8.238;2023-12-20T01:48:16;6.11;96.64
66213;SHT31;53015;50.046;8.238;2023-12-20T01:50:44;5.96;96.74
66213;SHT31;53015;50.046;8.238;2023-12-20T01:53:12;6.04;96.84
66213;SHT31;53015;50.046;8.238;2023-12-20T01:55:39;6.07;97.06
66213;SHT31;53015;50.046;8.238;2023-12-20T01:58:05;6.10;96.97
66213;SHT31;53015;50.046;8.238;2023-12-20T02:00:31;5.97;96.97
66213;SHT31;53015;50.046;8.238;2023-12-20T02:02:59;5.94;97.54
66213;SHT31;53015;50.046;8.238;2023-12-20T02:05:26;5.91;97.22
66213;SHT31;53015;50.046;8.238;2023-12-20T02:07:53;5.97;97.57
66213;SHT31;53015;50.046;8.238;2023-12-20T02:10:18;6.04;97.08
66213;SHT31;53015;50.046;8.238;2023-12-20T02:12:44;6.03;96.95
66213;SHT31;53015;50.046;8.238;2023-12-20T02:15:09;5.98;97.02
66213;SHT31;53015;50.046;8.238;2023-12-20T02:17:36;5.97;97.55
66213;SHT31;53015;50.046;8.238;2023-12-20T02:20:01;5.90;97.76
66213;SHT31;53015;50.046;8.238;2023-12-20T02:22:29;5.80;97.71
66213;SHT31;53015;50.046;8.238;2023-12-20T02:24:54;5.80;98.15
66213;SHT31;53015;50.046;8.238;2023-12-20T02:27:20;5.91;97.62
66213;SHT31;53015;50.046;8.238;2023-12-20T02:29:46;5.91;97.14
66213;SHT31;53015;50.046;8.238;2023-12-20T02:32:12;5.89;97.10
66213;SHT31;53015;50.046;8.238;2023-12-20T02:34:38;5.87;97.32
66213;SHT31;53015;50.046;8.238;2023-12-20T02:37:04;5.98;97.04
66213;SHT31;53015;50.046;8.238;2023-12-20T02:39:30;6.00;96.86
66213;SHT31;53015;50.046;8.238;2023-12-20T02:41:56;6.00;97.02
66213;SHT31;53015;50.046;8.238;2023-12-20T02:44:21;6.00;96.89
66213;SHT31;53015;50.046;8.238;2023-12-20T02:46:47;5.98;97.02
66213;SHT31;53015;50.046;8.238;2023-12-20T02:49:12;5.98;97.21
66213;SHT31;53015;50.046;8.238;2023-12-20T02:51:38;5.93;96.89
66213;SHT31;53015;50.046;8.238;2023-12-20T02:54:03;5.96;97.08
66213;SHT31;53015;50.046;8.238;2023-12-20T02:56:30;5.91;97.27
66213;SHT31;53015;50.046;8.238;2023-12-20T02:58:56;5.94;97.22
66213;SHT31;53015;50.046;8.238;2023-12-20T03:01:21;5.98;97.24
66213;SHT31;53015;50.046;8.238;2023-12-20T03:03:47;6.03;97.13
66213;SHT31;53015;50.046;8.238;2023-12-20T03:06:16;6.04;97.52
66213;SHT31;53015;50.046;8.238;2023-12-20T03:08:42;6.05;97.23
66213;SHT31;53015;50.046;8.238;2023-12-20T03:11:07;6.07;97.22
66213;SHT31;53015;50.046;8.238;2023-12-20T03:13:34;6.14;96.89
66213;SHT31;53015;50.046;8.238;2023-12-20T03:15:59;6.15;96.74
66213;SHT31;53015;50.046;8.238;2023-12-20T03:18:25;6.15;96.57
66213;SHT31;53015;50.046;8.238;2023-12-20T03:20:50;6.00;96.91
66213;SHT31;53015;50.046;8.238;2023-12-20T03:23:16;6.01;96.80
66213;SHT31;53015;50.046;8.238;2023-12-20T03:25:42;5.98;96.46
66213;SHT31;53015;50.046;8.238;2023-12-20T03:28:07;5.94;97.25
66213;SHT31;53015;50.046;8.238;2023-12-20T03:30:34;5.90;96.96
66213;SHT31;53015;50.046;8.238;2023-12-20T03:33:00;5.90;97.23
66213;SHT31;53015;50.046;8.238;2023-12-20T03:35:25;5.93;97.41
66213;SHT31;53015;50.046;8.238;2023-12-20T03:37:51;5.94;97.58
66213;SHT31;53015;50.046;8.238;2023-12-20T03:40:16;5.94;97.23
66213;SHT31;53015;50.046;8.238;2023-12-20T03:42:42;5.93;97.08
66213;SHT31;53015;50.046;8.238;2023-12-20T03:45:09;5.90;97.27
66213;SHT31;53015;50.046;8.238;2023-12-20T03:47:36;5.83;96.98
66213;SHT31;53015;50.046;8.238;2023-12-20T03:50:01;5.79;97.70
66213;SHT31;53015;50.046;8.238;2023-12-20T03:52:27;5.96;97.43
66213;SHT31;53015;50.046;8.238;2023-12-20T03:54:52;5.97;97.34
66213;SHT31;53015;50.046;8.238;2023-12-20T03:57:18;5.98;97.06
66213;SHT31;53015;50.046;8.238;2023-12-20T03:59:44;5.98;96.99
66213;SHT31;53015;50.046;8.238;2023-12-20T04:02:09;5.98;97.72
66213;SHT31;53015;50.046;8.238;2023-12-20T04:04:36;5.91;97.20
66213;SHT31;53015;50.046;8.238;2023-12-20T04:07:02;6.03;97.62
66213;SHT31;53015;50.046;8.238;2023-12-20T04:09:27;6.08;97.18
66213;SHT31;53015;50.046;8.238;2023-12-20T04:11:53;6.04;96.94
66213;SHT31;53015;50.046;8.238;2023-12-20T04:14:18;6.03;96.92
66213;SHT31;53015;50.046;8.238;2023-12-20T04:16:43;6.11;96.92
66213;SHT31;53015;50.046;8.238;2023-12-20T04:19:09;6.17;96.91
66213;SHT31;53015;50.046;8.238;2023-12-20T04:21:36;6.17;97.22
66213;SHT31;53015;50.046;8.238;2023-12-20T04:24:01;6.11;97.40
66213;SHT31;53015;50.046;8.238;2023-12-20T04:26:27;5.96;97.57
66213;SHT31;53015;50.046;8.238;2023-12-20T04:28:52;5.87;97.59
66213;SHT31;53015;50.046;8.238;2023-12-20T04:31:18;5.79;97.54
66213;SHT31;53015;50.046;8.238;2023-12-20T04:33:43;5.73;98.08
66213;SHT31;53015;50.046;8.238;2023-12-20T04:36:08;5.71;98.10
66213;SHT31;53015;50.046;8.238;2023-12-20T04:38:35;5.79;98.24
66213;SHT31;53015;50.046;8.238;2023-12-20T04:41:01;5.81;98.25
66213;SHT31;53015;50.046;8.238;2023-12-20T04:43:26;5.80;98.10
66213;SHT31;53015;50.046;8.238;2023-12-20T04:45:52;5.85;98.58
66213;SHT31;53015;50.046;8.238;2023-12-20T04:48:17;5.90;98.58
66213;SHT31;53015;50.046;8.238;2023-12-20T04:50:43;5.85;98.10
66213;SHT31;53015;50.046;8.238;2023-12-20T04:53:08;5.87;97.36
66213;SHT31;53015;50.046;8.238;2023-12-20T04:55:35;6.04;95.98
66213;SHT31;53015;50.046;8.238;2023-12-20T04:58:01;5.91;95.65
66213;SHT31;53015;50.046;8.238;2023-12-20T05:00:27;5.87;94.14
66213;SHT31;53015;50.046;8.238;2023-12-20T05:02:52;5.90;92.92
66213;SHT31;53015;50.046;8.238;2023-12-20T05:05:18;5.79;94.21
66213;SHT31;53015;50.046;8.238;2023-12-20T05:07:43;5.80;92.49
66213;SHT31;53015;50.046;8.238;2023-12-20T05:10:09;5.71;92.11
66213;SHT31;53015;50.046;8.238;2023-12-20T05:12:36;5.79;91.69
66213;SHT31;53015;50.046;8.238;2023-12-20T05:15:02;5.74;92.58
66213;SHT31;53015;50.046;8.238;2023-12-20T05:17:27;5.70;93.91
66213;SHT31;53015;50.046;8.238;2023-12-20T05:19:53;5.65;94.26
66213;SHT31;53015;50.046;8.238;2023-12-20T05:22:19;5.56;94.04
66213;SHT31;53015;50.046;8.238;2023-12-20T05:24:44;5.56;94.64
66213;SHT31;53015;50.046;8.238;2023-12-20T05:27:10;5.50;94.45
66213;SHT31;53015;50.046;8.238;2023-12-20T05:29:37;5.46;95.46
66213;SHT31;53015;50.046;8.238;2023-12-20T05:32:02;5.43;95.52
66213;SHT31;53015;50.046;8.238;2023-12-20T05:34:28;5.39;95.88
66213;SHT31;53015;50.046;8.238;2023-12-20T05:36:53;5.42;95.41
66213;SHT31;53015;50.046;8.238;2023-12-20T05:39:19;5.41;95.57
66213;SHT31;53015;50.046;8.238;2023-12-20T05:41:44;5.31;95.73
66213;SHT31;53015;50.046;8.238;2023-12-20T05:44:10;5.35;95.63
66213;SHT31;53015;50.046;8.238;2023-12-20T05:46:37;5.39;96.13
66213;SHT31;53015;50.046;8.238;2023-12-20T05:49:03;5.31;95.73
66213;SHT31;53015;50.046;8.238;2023-12-20T05:51:28;5.35;95.82
66213;SHT31;53015;50.046;8.238;2023-12-20T05:53:54;5.24;95.44
66213;SHT31;53015;50.046;8.238;2023-12-20T05:56:19;5.17;95.93
66213;SHT31;53015;50.046;8.238;2023-12-20T05:58:45;5.18;96.17
66213;SHT31;53015;50.046;8.238;2023-12-20T06:01:11;5.17;96.02
66213;SHT31;53015;50.046;8.238;2023-12-20T06:03:41;5.12;95.66
66213;SHT31;53015;50.046;8.238;2023-12-20T06:06:07;5.04;95.39
66213;SHT31;53015;50.046;8.238;2023-12-20T06:08:32;4.94;95.54
66213;SHT31;53015;50.046;8.238;2023-12-20T06:10:58;4.95;96.18
66213;SHT31;53015;50.046;8.238;2023-12-20T06:13:23;4.80;95.92
66213;SHT31;53015;50.046;8.238;2023-12-20T06:15:49;4.77;96.31
66213;SHT31;53015;50.046;8.238;2023-12-20T06:18:14;4.80;96.41
66213;SHT31;53015;50.046;8.238;2023-12-20T06:20:41;4.80;96.11
66213;SHT31;53015;50.046;8.238;2023-12-20T06:23:06;4.79;96.08
66213;SHT31;53015;50.046;8.238;2023-12-20T06:25:32;4.63;96.05
66213;SHT31;53015;50.046;8.238;2023-12-20T06:27:57;4.49;95.80
66213;SHT31;53015;50.046;8.238;2023-12-20T06:30:23;4.42;96.47
66213;SHT31;53015;50.046;8.238;2023-12-20T06:32:48;4.38;96.77
66213;SHT31;53015;50.046;8.238;2023-12-20T06:35:14;4.29;96.94
66213;SHT31;53015;50.046;8.238;2023-12-20T06:37:41;4.25;97.21
66213;SHT31;53015;50.046;8.238;2023-12-20T06:40:08;4.14;97.25
66213;SHT31;53015;50.046;8.238;2023-12-20T06:42:33;4.07;97.18
66213;SHT31;53015;50.046;8.238;2023-12-20T06:44:59;4.11;97.30
66213;SHT31;53015;50.046;8.238;2023-12-20T06:47:24;4.07;96.96
66213;SHT31;53015;50.046;8.238;2023-12-20T06:49:50;4.11;97.33
66213;SHT31;53015;50.046;8.238;2023-12-20T06:52:16;4.08;97.17
66213;SHT31;53015;50.046;8.238;2023-12-20T06:54:42;4.01;96.43
66213;SHT31;53015;50.046;8.238;2023-12-20T06:57:08;4.01;96.68
66213;SHT31;53015;50.046;8.238;2023-12-20T06:59:38;3.95;96.20
66213;SHT31;53015;50.046;8.238;2023-12-20T07:02:04;3.98;96.73
66213;SHT31;53015;50.046;8.238;2023-12-20T07:04:29;3.89;96.78
66213;SHT31;53015;50.046;8.238;2023-12-20T07:06:54;4.05;96.79
66213;SHT31;53015;50.046;8.238;2023-12-20T07:09:20;4.08;96.66
66213;SHT31;53015;50.046;8.238;2023-12-20T07:11:47;4.10;96.54
66213;SHT31;53015;50.046;8.238;2023-12-20T07:14:12;4.14;96.63
66213;SHT31;53015;50.046;8.238;2023-12-20T07:16:38;4.07;96.36
66213;SHT31;53015;50.046;8.238;2023-12-20T07:19:03;4.12;95.94
66213;SHT31;53015;50.046;8.238;2023-12-20T07:21:29;4.17;95.98
66213;SHT31;53015;50.046;8.238;2023-12-20T07:23:54;4.27;95.41
66213;SHT31;53015;50.046;8.238;2023-12-20T07:26:20;4.34;95.13
66213;SHT31;53015;50.046;8.238;2023-12-20T07:28:46;4.45;95.86
66213;SHT31;53015;50.046;8.238;2023-12-20T07:31:12;4.39;95.42
66213;SHT31;53015;50.046;8.238;2023-12-20T07:33:38;4.38;96.11
66213;SHT31;53015;50.046;8.238;2023-12-20T07:36:04;4.49;95.87
66213;SHT31;53015;50.046;8.238;2023-12-20T07:38:30;4.56;95.97
66213;SHT31;53015;50.046;8.238;2023-12-20T07:40:55;4.63;95.66
66213;SHT31;53015;50.046;8.238;2023-12-20T07:43:21;4.72;95.83
66213;SHT31;53015;50.046;8.238;2023-12-20T07:45:47;4.67;95.65
66213;SHT31;53015;50.046;8.238;2023-12-20T07:48:13;4.65;95.45
66213;SHT31;53015;50.046;8.238;2023-12-20T07:50:38;4.59;95.54
66213;SHT31;53015;50.046;8.238;2023-12-20T07:53:04;4.62;96.07
66213;SHT31;53015;50.046;8.238;2023-12-20T07:55:29;4.56;95.59
66213;SHT31;53015;50.046;8.238;2023-12-20T07:57:55;4.65;95.89
66213;SHT31;53015;50.046;8.238;2023-12-20T08:00:20;4.65;95.59
66213;SHT31;53015;50.046;8.238;2023-12-20T08:02:47;4.59;95.14
66213;SHT31;53015;50.046;8.238;2023-12-20T08:05:13;4.72;94.59
66213;SHT31;53015;50.046;8.238;2023-12-20T08:07:38;4.83;94.19
66213;SHT31;53015;50.046;8.238;2023-12-20T08:10:05;4.91;94.49
66213;SHT31;53015;50.046;8.238;2023-12-20T08:12:30;4.95;94.77
66213;SHT31;53015;50.046;8.238;2023-12-20T08:14:56;5.07;93.75
66213;SHT31;53015;50.046;8.238;2023-12-20T08:17:21;5.10;94.29
66213;SHT31;53015;50.046;8.238;2023-12-20T08:19:48;5.01;93.90
66213;SHT31;53015;50.046;8.238;2023-12-20T08:22:14;5.04;94.26
66213;SHT31;53015;50.046;8.238;2023-12-20T08:24:39;5.14;94.72
66213;SHT31;53015;50.046;8.238;2023-12-20T08:27:05;5.20;94.65
66213;SHT31;53015;50.046;8.238;2023-12-20T08:29:30;5.25;94.55
66213;SHT31;53015;50.046;8.238;2023-12-20T08:31:56;5.41;94.56
66213;SHT31;53015;50.046;8.238;2023-12-20T08:34:21;5.49;93.44
66213;SHT31;53015;50.046;8.238;2023-12-20T08:36:48;5.53;93.69
66213;SHT31;53015;50.046;8.238;2023-12-20T08:39:14;5.60;93.26
66213;SHT31;53015;50.046;8.238;2023-12-20T08:41:39;5.66;93.54
66213;SHT31;53015;50.046;8.238;2023-12-20T08:44:05;5.69;93.39
66213;SHT31;53015;50.046;8.238;2023-12-20T08:46:30;5.83;92.45
66213;SHT31;53015;50.046;8.238;2023-12-20T08:48:56;5.90;92.62
66213;SHT31;53015;50.046;8.238;2023-12-20T08:51:21;5.85;93.04
66213;SHT31;53015;50.046;8.238;2023-12-20T08:53:48;6.00;91.78
66213;SHT31;53015;50.046;8.238;2023-12-20T08:56:14;6.03;91.90
66213;SHT31;53015;50.046;8.238;2023-12-20T08:58:39;6.00;91.37
66213;SHT31;53015;50.046;8.238;2023-12-20T09:01:05;6.11;91.08
66213;SHT31;53015;50.046;8.238;2023-12-20T09:03:30;6.07;91.90
66213;SHT31;53015;50.046;8.238;2023-12-20T09:05:56;6.17;91.18
66213;SHT31;53015;50.046;8.238;2023-12-20T09:08:21;6.29;90.72
66213;SHT31;53015;50.046;8.238;2023-12-20T09:10:48;6.36;90.67
66213;SHT31;53015;50.046;8.238;2023-12-20T09:13:13;6.29;89.88
66213;SHT31;53015;50.046;8.238;2023-12-20T09:15:39;6.29;90.11
66213;SHT31;53015;50.046;8.238;2023-12-20T09:18:05;6.32;90.48
66213;SHT31;53015;50.046;8.238;2023-12-20T09:20:30;6.28;91.13
66213;SHT31;53015;50.046;8.238;2023-12-20T09:22:56;6.42;91.07
66213;SHT31;53015;50.046;8.238;2023-12-20T09:25:21;6.53;90.76
66213;SHT31;53015;50.046;8.238;2023-12-20T09:27:48;6.39;90.02
66213;SHT31;53015;50.046;8.238;2023-12-20T09:30:13;6.45;90.51
66213;SHT31;53015;50.046;8.238;2023-12-20T09:32:39;6.46;90.10
66213;SHT31;53015;50.046;8.238;2023-12-20T09:35:05;6.48;90.28
66213;SHT31;53015;50.046;8.238;2023-12-20T09:37:31;6.54;90.05
66213;SHT31;53015;50.046;8.238;2023-12-20T09:39:56;6.73;89.76
66213;SHT31;53015;50.046;8.238;2023-12-20T09:42:26;6.80;88.98
66213;SHT31;53015;50.046;8.238;2023-12-20T09:44:58;6.81;89.06
66213;SHT31;53015;50.046;8.238;2023-12-20T09:47:26;6.87;89.47
66213;SHT31;53015;50.046;8.238;2023-12-20T09:49:51;6.86;88.92
66213;SHT31;53015;50.046;8.238;2023-12-20T09:52:18;6.87;89.34
66213;SHT31;53015;50.046;8.238;2023-12-20T09:54:44;6.69;89.76
66213;SHT31;53015;50.046;8.238;2023-12-20T09:57:10;6.54;90.08
66213;SHT31;53015;50.046;8.238;2023-12-20T09:59:36;6.52;90.68
66213;SHT31;53015;50.046;8.238;2023-12-20T10:02:04;6.49;91.03
66213;SHT31;53015;50.046;8.238;2023-12-20T10:04:35;6.46;90.88
66213;SHT31;53015;50.046;8.238;2023-12-20T10:07:02;6.46;90.80
66213;SHT31;53015;50.046;8.238;2023-12-20T10:09:29;6.53;90.34
66213;SHT31;53015;50.046;8.238;2023-12-20T10:11:56;6.57;90.51
66213;SHT31;53015;50.046;8.238;2023-12-20T10:14:23;6.62;90.33
66213;SHT31;53015;50.046;8.238;2023-12-20T10:16:49;6.59;89.92
66213;SHT31;53015;50.046;8.238;2023-12-20T10:19:17;6.56;90.47
66213;SHT31;53015;50.046;8.238;2023-12-20T10:21:44;6.53;90.39
66213;SHT31;53015;50.046;8.238;2023-12-20T10:24:16;6.54;90.36
66213;SHT31;53015;50.046;8.238;2023-12-20T10:26:42;6.49;90.41
66213;SHT31;53015;50.046;8.238;2023-12-20T10:29:07;6.49;90.80
66213;SHT31;53015;50.046;8.238;2023-12-20T10:31:34;6.50;90.44
66213;SHT31;53015;50.046;8.238;2023-12-20T10:34:01;6.48;90.22
66213;SHT31;53015;50.046;8.238;2023-12-20T10:36:30;6.41;91.34
66213;SHT31;53015;50.046;8.238;2023-12-20T10:38:57;6.28;91.82
66213;SHT31;53015;50.046;8.238;2023-12-20T10:41:26;6.39;90.97
66213;SHT31;53015;50.046;8.238;2023-12-20T10:43:52;6.36;90.50
66213;SHT31;53015;50.046;8.238;2023-12-20T10:46:18;6.38;90.70
66213;SHT31;53015;50.046;8.238;2023-12-20T10:48:45;6.49;88.54
66213;SHT31;53015;50.046;8.238;2023-12-20T10:51:11;6.52;88.63
66213;SHT31;53015;50.046;8.238;2023-12-20T10:53:38;6.62;88.77
66213;SHT31;53015;50.046;8.238;2023-12-20T10:56:06;6.68;88.62
66213;SHT31;53015;50.046;8.238;2023-12-20T10:58:33;6.73;87.68
66213;SHT31;53015;50.046;8.238;2023-12-20T11:01:00;6.89;86.22
66213;SHT31;53015;50.046;8.238;2023-12-20T11:03:27;7.00;85.36
66213;SHT31;53015;50.046;8.238;2023-12-20T11:05:58;7.04;84.59
66213;SHT31;53015;50.046;8.238;2023-12-20T11:08:33;7.01;85.59
66213;SHT31;53015;50.046;8.238;2023-12-20T11:11:07;7.04;85.10
66213;SHT31;53015;50.046;8.238;2023-12-20T11:13:40;7.03;85.43
66213;SHT31;53015;50.046;8.238;2023-12-20T11:16:09;7.03;84.97
66213;SHT31;53015;50.046;8.238;2023-12-20T11:18:36;7.11;83.84
66213;SHT31;53015;50.046;8.238;2023-12-20T11:21:04;7.17;84.45
66213;SHT31;53015;50.046;8.238;2023-12-20T11:23:30;7.24;83.23
66213;SHT31;53015;50.046;8.238;2023-12-20T11:25:56;7.38;82.85
66213;SHT31;53015;50.046;8.238;2023-12-20T11:28:25;7.48;82.76
66213;SHT31;53015;50.046;8.238;2023-12-20T11:30:52;7.63;81.54
66213;SHT31;53015;50.046;8.238;2023-12-20T11:33:21;7.77;81.87
66213;SHT31;53015;50.046;8.238;2023-12-20T11:35:47;7.77;81.44
66213;SHT31;53015;50.046;8.238;2023-12-20T11:38:13;7.72;81.97
66213;SHT31;53015;50.046;8.238;2023-12-20T11:40:41;7.84;81.38
66213;SHT31;53015;50.046;8.238;2023-12-20T11:43:07;7.82;81.38
66213;SHT31;53015;50.046;8.238;2023-12-20T11:45:34;7.82;81.33
66213;SHT31;53015;50.046;8.238;2023-12-20T11:47:59;7.89;81.19
66213;SHT31;53015;50.046;8.238;2023-12-20T11:50:26;7.84;81.04
66213;SHT31;53015;50.046;8.238;2023-12-20T11:52:53;7.89;81.34
66213;SHT31;53015;50.046;8.238;2023-12-20T11:55:19;7.95;81.22
66213;SHT31;53015;50.046;8.238;2023-12-20T11:57:44;7.94;81.24
66213;SHT31;53015;50.046;8.238;2023-12-20T12:00:10;7.86;81.48
66213;SHT31;53015;50.046;8.238;2023-12-20T12:02:37;7.76;80.95
66213;SHT31;53015;50.046;8.238;2023-12-20T12:05:03;7.62;81.76
66213;SHT31;53015;50.046;8.238;2023-12-20T12:07:29;7.51;82.41
66213;SHT31;53015;50.046;8.238;2023-12-20T12:09:55;7.51;82.35
66213;SHT31;53015;50.046;8.238;2023-12-20T12:12:20;7.36;82.64
66213;SHT31;53015;50.046;8.238;2023-12-20T12:14:46;7.29;82.26
66213;SHT31;53015;50.046;8.238;2023-12-20T12:17:11;7.31;83.05
66213;SHT31;53015;50.046;8.238;2023-12-20T12:19:39;7.29;83.32
66213;SHT31;53015;50.046;8.238;2023-12-20T12:22:04;7.36;82.75
66213;SHT31;53015;50.046;8.238;2023-12-20T12:24:30;7.32;83.44
66213;SHT31;53015;50.046;8.238;2023-12-20T12:26:57;7.39;83.07
66213;SHT31;53015;50.046;8.238;2023-12-20T12:29:23;7.34;82.98
66213;SHT31;53015;50.046;8.238;2023-12-20T12:31:48;7.36;82.57
66213;SHT31;53015;50.046;8.238;2023-12-20T12:34:14;7.39;82.94
66213;SHT31;53015;50.046;8.238;2023-12-20T12:36:41;7.44;82.74
66213;SHT31;53015;50.046;8.238;2023-12-20T12:39:06;7.45;82.79
66213;SHT31;53015;50.046;8.238;2023-12-20T12:41:32;7.42;82.38
66213;SHT31;53015;50.046;8.238;2023-12-20T12:43:57;7.44;82.90
66213;SHT31;53015;50.046;8.238;2023-12-20T12:46:22;7.54;81.59
66213;SHT31;53015;50.046;8.238;2023-12-20T12:48:48;7.59;82.00
66213;SHT31;53015;50.046;8.238;2023-12-20T12:51:13;7.65;82.55
66213;SHT31;53015;50.046;8.238;2023-12-20T12:53:40;7.77;82.41
66213;SHT31;53015;50.046;8.238;2023-12-20T12:56:06;7.95;81.23
66213;SHT31;53015;50.046;8.238;2023-12-20T12:58:32;7.98;80.84
66213;SHT31;53015;50.046;8.238;2023-12-20T13:00:58;8.01;81.13
66213;SHT31;53015;50.046;8.238;2023-12-20T13:03:23;8.15;81.20
66213;SHT31;53015;50.046;8.238;2023-12-20T13:05:49;8.22;81.39
66213;SHT31;53015;50.046;8.238;2023-12-20T13:08:14;8.21;81.32
66213;SHT31;53015;50.046;8.238;2023-12-20T13:10:41;8.34;81.18
66213;SHT31;53015;50.046;8.238;2023-12-20T13:13:07;8.44;81.33
66213;SHT31;53015;50.046;8.238;2023-12-20T13:15:33;8.52;80.50
66213;SHT31;53015;50.046;8.238;2023-12-20T13:17:58;8.65;80.99
66213;SHT31;53015;50.046;8.238;2023-12-20T13:20:24;8.75;80.51
66213;SHT31;53015;50.046;8.238;2023-12-20T13:22:52;8.80;81.00
66213;SHT31;53015;50.046;8.238;2023-12-20T13:25:18;8.77;80.76
66213;SHT31;53015;50.046;8.238;2023-12-20T13:27:45;8.67;80.89
66213;SHT31;53015;50.046;8.238;2023-12-20T13:30:10;8.60;79.80
66213;SHT31;53015;50.046;8.238;2023-12-20T13:32:36;8.60;81.00
66213;SHT31;53015;50.046;8.238;2023-12-20T13:35:01;8.67;80.78
66213;SHT31;53015;50.046;8.238;2023-12-20T13:37:27;8.69;81.10
66213;SHT31;53015;50.046;8.238;2023-12-20T13:39:52;8.72;80.42
66213;SHT31;53015;50.046;8.238;2023-12-20T13:42:18;8.84;80.40
66213;SHT31;53015;50.046;8.238;2023-12-20T13:44:45;8.93;80.23
66213;SHT31;53015;50.046;8.238;2023-12-20T13:47:10;8.99;80.17
66213;SHT31;53015;50.046;8.238;2023-12-20T13:49:36;8.81;80.04
66213;SHT31;53015;50.046;8.238;2023-12-20T13:52:01;8.72;81.02
66213;SHT31;53015;50.046;8.238;2023-12-20T13:54:27;8.66;80.75
66213;SHT31;53015;50.046;8.238;2023-12-20T13:56:52;8.49;80.99
66213;SHT31;53015;50.046;8.238;2023-12-20T13:59:17;8.44;81.41
66213;SHT31;53015;50.046;8.238;2023-12-20T14:01:44;8.39;81.71
66213;SHT31;53015;50.046;8.238;2023-12-20T14:04:10;8.38;81.60
66213;SHT31;53015;50.046;8.238;2023-12-20T14:06:35;8.31;82.08
66213;SHT31;53015;50.046;8.238;2023-12-20T14:09:01;8.27;82.01
66213;SHT31;53015;50.046;8.238;2023-12-20T14:11:26;8.27;81.81
66213;SHT31;53015;50.046;8.238;2023-12-20T14:13:52;8.24;81.97
66213;SHT31;53015;50.046;8.238;2023-12-20T14:16:17;8.20;81.50
66213;SHT31;53015;50.046;8.238;2023-12-20T14:18:44;8.18;82.29
66213;SHT31;53015;50.046;8.238;2023-12-20T14:21:09;8.22;82.12
66213;SHT31;53015;50.046;8.238;2023-12-20T14:23:35;8.22;82.37
66213;SHT31;53015;50.046;8.238;2023-12-20T14:26:00;8.22;82.24
66213;SHT31;53015;50.046;8.238;2023-12-20T14:28:26;8.20;82.21
66213;SHT31;53015;50.046;8.238;2023-12-20T14:30:51;8.18;82.73
66213;SHT31;53015;50.046;8.238;2023-12-20T14:33:17;8.11;82.36
66213;SHT31;53015;50.046;8.238;2023-12-20T14:35:44;8.08;82.98
66213;SHT31;53015;50.046;8.238;2023-12-20T14:38:10;8.04;82.62
66213;SHT31;53015;50.046;8.238;2023-12-20T14:40:35;8.03;82.93
66213;SHT31;53015;50.046;8.238;2023-12-20T14:43:01;7.97;83.26
66213;SHT31;53015;50.046;8.238;2023-12-20T14:45:26;7.94;83.05
66213;SHT31;53015;50.046;8.238;2023-12-20T14:47:52;7.87;83.51
66213;SHT31;53015;50.046;8.238;2023-12-20T14:50:17;7.87;83.91
66213;SHT31;53015;50.046;8.238;2023-12-20T14:52:44;7.83;83.72
66213;SHT31;53015;50.046;8.238;2023-12-20T14:55:10;7.82;83.49
66213;SHT31;53015;50.046;8.238;2023-12-20T14:57:35;7.84;83.61
66213;SHT31;53015;50.046;8.238;2023-12-20T15:00:01;7.87;83.78
66213;SHT31;53015;50.046;8.238;2023-12-20T15:02:26;7.87;83.53
66213;SHT31;53015;50.046;8.238;2023-12-20T15:04:52;7.90;83.51
66213;SHT31;53015;50.046;8.238;2023-12-20T15:07:17;7.87;83.25
66213;SHT31;53015;50.046;8.238;2023-12-20T15:09:44;7.90;83.32
66213;SHT31;53015;50.046;8.238;2023-12-20T15:12:09;7.83;83.51
66213;SHT31;53015;50.046;8.238;2023-12-20T15:14:35;7.76;83.86
66213;SHT31;53015;50.046;8.238;2023-12-20T15:17:00;7.80;83.53
66213;SHT31;53015;50.046;8.238;2023-12-20T15:19:26;7.77;84.25
66213;SHT31;53015;50.046;8.238;2023-12-20T15:21:51;7.83;83.83
66213;SHT31;53015;50.046;8.238;2023-12-20T15:24:17;7.76;84.14
66213;SHT31;53015;50.046;8.238;2023-12-20T15:26:44;7.82;84.17
66213;SHT31;53015;50.046;8.238;2023-12-20T15:29:09;7.79;83.97
66213;SHT31;53015;50.046;8.238;2023-12-20T15:31:35;7.82;83.77
66213;SHT31;53015;50.046;8.238;2023-12-20T15:34:01;7.73;84.24
66213;SHT31;53015;50.046;8.238;2023-12-20T15:36:26;7.73;84.01